sensor_id;sensor_type;location;lat;lon;timestamp;temperature;humidity
72814;DHT22;60945;48.516;-2.768;2023-05-29T00:00:17;13.90;75.70
72814;DHT22;60945;48.516;-2.768;2023-05-29T00:02:43;13.90;76.30
72814;DHT22;60945;48.516;-2.768;2023-05-29T00:05:13;13.90;76.20
72814;DHT22;60945;48.516;-2.768;2023-05-29T00:07:43;13.90;76.80
72814;DHT22;60945;48.516;-2.768;2023-05-29T00:10:10;13.80;77.20
72814;DHT22;60945;48.516;-2.768;2023-05-29T00:12:37;13.80;77.30
72814;DHT22;60945;48.516;-2.768;2023-05-29T00:15:04;13.80;77.60
72814;DHT22;60945;48.516;-2.768;2023-05-29T00:17:30;13.80;77.80
72814;DHT22;60945;48.516;-2.768;2023-05-29T00:19:59;13.80;78.30
72814;DHT22;60945;48.516;-2.768;2023-05-29T00:22:27;13.80;78.40
72814;DHT22;60945;48.516;-2.768;2023-05-29T00:24:52;13.80;78.50
72814;DHT22;60945;48.516;-2.768;2023-05-29T00:27:18;13.80;79.00
72814;DHT22;60945;48.516;-2.768;2023-05-29T00:29:44;13.70;79.10
72814;DHT22;60945;48.516;-2.768;2023-05-29T00:32:10;13.70;79.40
72814;DHT22;60945;48.516;-2.768;2023-05-29T00:34:36;13.70;79.70
72814;DHT22;60945;48.516;-2.768;2023-05-29T00:37:01;13.70;79.70
72814;DHT22;60945;48.516;-2.768;2023-05-29T00:39:27;13.70;80.20
72814;DHT22;60945;48.516;-2.768;2023-05-29T00:41:53;13.70;80.40
72814;DHT22;60945;48.516;-2.768;2023-05-29T00:44:19;13.70;80.70
72814;DHT22;60945;48.516;-2.768;2023-05-29T00:46:46;13.60;81.10
72814;DHT22;60945;48.516;-2.768;2023-05-29T00:49:13;13.60;81.40
72814;DHT22;60945;48.516;-2.768;2023-05-29T00:51:43;13.60;81.90
72814;DHT22;60945;48.516;-2.768;2023-05-29T00:54:11;13.60;82.00
72814;DHT22;60945;48.516;-2.768;2023-05-29T00:56:41;13.60;82.00
72814;DHT22;60945;48.516;-2.768;2023-05-29T00:59:12;13.60;82.10
72814;DHT22;60945;48.516;-2.768;2023-05-29T01:01:38;13.60;82.50
72814;DHT22;60945;48.516;-2.768;2023-05-29T01:04:05;13.60;82.40
72814;DHT22;60945;48.516;-2.768;2023-05-29T01:06:35;13.60;82.90
72814;DHT22;60945;48.516;-2.768;2023-05-29T01:09:01;13.50;82.90
72814;DHT22;60945;48.516;-2.768;2023-05-29T01:14:06;13.50;82.90
72814;DHT22;60945;48.516;-2.768;2023-05-29T01:16:43;13.50;83.00
72814;DHT22;60945;48.516;-2.768;2023-05-29T01:19:29;13.50;83.00
72814;DHT22;60945;48.516;-2.768;2023-05-29T01:24:44;13.50;83.10
72814;DHT22;60945;48.516;-2.768;2023-05-29T01:27:15;13.40;83.30
72814;DHT22;60945;48.516;-2.768;2023-05-29T01:29:43;13.40;83.30
72814;DHT22;60945;48.516;-2.768;2023-05-29T01:32:09;13.40;83.40
72814;DHT22;60945;48.516;-2.768;2023-05-29T01:34:36;13.40;83.30
72814;DHT22;60945;48.516;-2.768;2023-05-29T01:37:01;13.40;83.60
72814;DHT22;60945;48.516;-2.768;2023-05-29T01:39:28;13.40;83.40
72814;DHT22;60945;48.516;-2.768;2023-05-29T01:41:55;13.40;83.50
72814;DHT22;60945;48.516;-2.768;2023-05-29T01:44:21;13.30;83.60
72814;DHT22;60945;48.516;-2.768;2023-05-29T01:46:47;13.30;83.80
72814;DHT22;60945;48.516;-2.768;2023-05-29T01:49:14;13.30;84.10
72814;DHT22;60945;48.516;-2.768;2023-05-29T01:51:40;13.30;84.20
72814;DHT22;60945;48.516;-2.768;2023-05-29T01:54:07;13.30;84.20
72814;DHT22;60945;48.516;-2.768;2023-05-29T01:56:33;13.20;84.50
72814;DHT22;60945;48.516;-2.768;2023-05-29T01:59:00;13.20;84.60
72814;DHT22;60945;48.516;-2.768;2023-05-29T02:01:27;13.20;84.70
72814;DHT22;60945;48.516;-2.768;2023-05-29T02:03:52;13.20;84.90
72814;DHT22;60945;48.516;-2.768;2023-05-29T02:06:19;13.20;84.80
72814;DHT22;60945;48.516;-2.768;2023-05-29T02:08:45;13.20;84.90
72814;DHT22;60945;48.516;-2.768;2023-05-29T02:11:11;13.20;84.80
72814;DHT22;60945;48.516;-2.768;2023-05-29T02:13:37;13.20;85.00
72814;DHT22;60945;48.516;-2.768;2023-05-29T02:16:03;13.10;85.00
72814;DHT22;60945;48.516;-2.768;2023-05-29T02:18:29;13.10;85.00
72814;DHT22;60945;48.516;-2.768;2023-05-29T02:20:54;13.10;85.10
72814;DHT22;60945;48.516;-2.768;2023-05-29T02:23:20;13.20;85.30
72814;DHT22;60945;48.516;-2.768;2023-05-29T02:25:46;13.20;85.20
72814;DHT22;60945;48.516;-2.768;2023-05-29T02:28:12;13.20;85.50
72814;DHT22;60945;48.516;-2.768;2023-05-29T02:30:40;13.10;85.50
72814;DHT22;60945;48.516;-2.768;2023-05-29T02:33:06;13.20;85.90
72814;DHT22;60945;48.516;-2.768;2023-05-29T02:35:32;13.20;85.80
72814;DHT22;60945;48.516;-2.768;2023-05-29T02:37:57;13.30;85.70
72814;DHT22;60945;48.516;-2.768;2023-05-29T02:40:23;13.30;85.70
72814;DHT22;60945;48.516;-2.768;2023-05-29T02:42:49;13.50;85.20
72814;DHT22;60945;48.516;-2.768;2023-05-29T02:45:16;13.50;84.90
72814;DHT22;60945;48.516;-2.768;2023-05-29T02:47:41;13.70;84.50
72814;DHT22;60945;48.516;-2.768;2023-05-29T02:50:07;13.80;84.50
72814;DHT22;60945;48.516;-2.768;2023-05-29T02:52:33;13.80;84.60
72814;DHT22;60945;48.516;-2.768;2023-05-29T02:55:00;13.80;84.30
72814;DHT22;60945;48.516;-2.768;2023-05-29T02:57:25;13.90;83.90
72814;DHT22;60945;48.516;-2.768;2023-05-29T02:59:51;13.90;83.90
72814;DHT22;60945;48.516;-2.768;2023-05-29T03:02:20;13.90;84.20
72814;DHT22;60945;48.516;-2.768;2023-05-29T03:04:46;13.90;84.40
72814;DHT22;60945;48.516;-2.768;2023-05-29T03:07:12;13.90;83.80
72814;DHT22;60945;48.516;-2.768;2023-05-29T03:09:38;13.80;83.80
72814;DHT22;60945;48.516;-2.768;2023-05-29T03:12:04;13.80;83.60
72814;DHT22;60945;48.516;-2.768;2023-05-29T03:14:29;13.90;83.80
72814;DHT22;60945;48.516;-2.768;2023-05-29T03:16:58;13.90;83.70
72814;DHT22;60945;48.516;-2.768;2023-05-29T03:19:24;13.90;83.60
72814;DHT22;60945;48.516;-2.768;2023-05-29T03:21:53;13.80;83.70
72814;DHT22;60945;48.516;-2.768;2023-05-29T03:24:18;13.90;83.40
72814;DHT22;60945;48.516;-2.768;2023-05-29T03:26:44;13.80;83.20
72814;DHT22;60945;48.516;-2.768;2023-05-29T03:29:10;13.80;82.90
72814;DHT22;60945;48.516;-2.768;2023-05-29T03:31:35;13.80;83.40
72814;DHT22;60945;48.516;-2.768;2023-05-29T03:34:01;13.80;82.90
72814;DHT22;60945;48.516;-2.768;2023-05-29T03:36:27;13.80;83.40
72814;DHT22;60945;48.516;-2.768;2023-05-29T03:38:53;13.70;83.40
72814;DHT22;60945;48.516;-2.768;2023-05-29T03:41:19;13.80;83.20
72814;DHT22;60945;48.516;-2.768;2023-05-29T03:43:45;13.70;83.10
72814;DHT22;60945;48.516;-2.768;2023-05-29T03:46:11;13.80;83.00
72814;DHT22;60945;48.516;-2.768;2023-05-29T03:48:37;13.80;82.70
72814;DHT22;60945;48.516;-2.768;2023-05-29T03:51:03;13.80;82.80
72814;DHT22;60945;48.516;-2.768;2023-05-29T03:53:29;13.70;83.40
72814;DHT22;60945;48.516;-2.768;2023-05-29T03:55:54;13.70;83.60
72814;DHT22;60945;48.516;-2.768;2023-05-29T03:58:20;13.80;83.00
72814;DHT22;60945;48.516;-2.768;2023-05-29T04:00:46;13.80;82.60
72814;DHT22;60945;48.516;-2.768;2023-05-29T04:03:11;13.80;82.00
72814;DHT22;60945;48.516;-2.768;2023-05-29T04:05:37;13.80;82.10
72814;DHT22;60945;48.516;-2.768;2023-05-29T04:08:03;13.80;82.40
72814;DHT22;60945;48.516;-2.768;2023-05-29T04:10:30;13.80;82.70
72814;DHT22;60945;48.516;-2.768;2023-05-29T04:12:59;13.80;82.70
72814;DHT22;60945;48.516;-2.768;2023-05-29T04:15:25;13.80;82.80
72814;DHT22;60945;48.516;-2.768;2023-05-29T04:17:51;13.90;82.60
72814;DHT22;60945;48.516;-2.768;2023-05-29T04:20:16;13.90;82.80
72814;DHT22;60945;48.516;-2.768;2023-05-29T04:22:42;13.90;82.20
72814;DHT22;60945;48.516;-2.768;2023-05-29T04:25:08;13.90;82.30
72814;DHT22;60945;48.516;-2.768;2023-05-29T04:27:34;13.80;82.80
72814;DHT22;60945;48.516;-2.768;2023-05-29T04:30:07;13.90;82.80
72814;DHT22;60945;48.516;-2.768;2023-05-29T04:32:33;13.90;82.70
72814;DHT22;60945;48.516;-2.768;2023-05-29T04:34:59;13.90;82.20
72814;DHT22;60945;48.516;-2.768;2023-05-29T04:37:30;13.90;81.80
72814;DHT22;60945;48.516;-2.768;2023-05-29T04:40:03;13.80;81.90
72814;DHT22;60945;48.516;-2.768;2023-05-29T04:42:31;13.90;81.80
72814;DHT22;60945;48.516;-2.768;2023-05-29T04:44:59;13.90;81.80
72814;DHT22;60945;48.516;-2.768;2023-05-29T04:47:26;13.90;81.50
72814;DHT22;60945;48.516;-2.768;2023-05-29T04:49:51;13.90;81.70
72814;DHT22;60945;48.516;-2.768;2023-05-29T04:52:17;13.90;81.00
72814;DHT22;60945;48.516;-2.768;2023-05-29T04:54:43;13.90;81.40
72814;DHT22;60945;48.516;-2.768;2023-05-29T04:57:09;13.90;81.50
72814;DHT22;60945;48.516;-2.768;2023-05-29T04:59:35;14.00;81.30
72814;DHT22;60945;48.516;-2.768;2023-05-29T05:02:01;14.00;81.10
72814;DHT22;60945;48.516;-2.768;2023-05-29T05:04:27;13.90;81.30
72814;DHT22;60945;48.516;-2.768;2023-05-29T05:06:52;13.90;81.30
72814;DHT22;60945;48.516;-2.768;2023-05-29T05:09:21;13.90;81.30
72814;DHT22;60945;48.516;-2.768;2023-05-29T05:11:47;14.00;81.30
72814;DHT22;60945;48.516;-2.768;2023-05-29T05:14:12;13.90;80.70
72814;DHT22;60945;48.516;-2.768;2023-05-29T05:16:38;13.90;81.10
72814;DHT22;60945;48.516;-2.768;2023-05-29T05:19:03;13.90;80.50
72814;DHT22;60945;48.516;-2.768;2023-05-29T05:21:29;13.80;80.60
72814;DHT22;60945;48.516;-2.768;2023-05-29T05:23:56;13.90;80.50
72814;DHT22;60945;48.516;-2.768;2023-05-29T05:26:22;13.90;80.50
72814;DHT22;60945;48.516;-2.768;2023-05-29T05:28:48;13.90;80.30
72814;DHT22;60945;48.516;-2.768;2023-05-29T05:31:13;13.90;80.10
72814;DHT22;60945;48.516;-2.768;2023-05-29T05:33:39;13.80;80.40
72814;DHT22;60945;48.516;-2.768;2023-05-29T05:36:04;13.80;80.20
72814;DHT22;60945;48.516;-2.768;2023-05-29T05:38:32;13.80;80.30
72814;DHT22;60945;48.516;-2.768;2023-05-29T05:40:57;13.80;79.90
72814;DHT22;60945;48.516;-2.768;2023-05-29T05:43:23;13.80;80.00
72814;DHT22;60945;48.516;-2.768;2023-05-29T05:45:49;13.80;79.70
72814;DHT22;60945;48.516;-2.768;2023-05-29T05:48:15;13.80;80.00
72814;DHT22;60945;48.516;-2.768;2023-05-29T05:50:41;13.80;79.90
72814;DHT22;60945;48.516;-2.768;2023-05-29T05:53:06;13.80;80.10
72814;DHT22;60945;48.516;-2.768;2023-05-29T05:55:32;13.80;80.40
72814;DHT22;60945;48.516;-2.768;2023-05-29T05:57:57;13.80;80.40
72814;DHT22;60945;48.516;-2.768;2023-05-29T06:00:23;13.90;80.20
72814;DHT22;60945;48.516;-2.768;2023-05-29T06:02:49;14.00;79.80
72814;DHT22;60945;48.516;-2.768;2023-05-29T06:05:15;13.90;80.10
72814;DHT22;60945;48.516;-2.768;2023-05-29T06:07:41;13.90;79.80
72814;DHT22;60945;48.516;-2.768;2023-05-29T06:10:07;14.00;79.60
72814;DHT22;60945;48.516;-2.768;2023-05-29T06:12:33;14.00;79.70
72814;DHT22;60945;48.516;-2.768;2023-05-29T06:15:00;14.10;79.10
72814;DHT22;60945;48.516;-2.768;2023-05-29T06:17:25;14.20;79.10
72814;DHT22;60945;48.516;-2.768;2023-05-29T06:19:54;14.30;78.90
72814;DHT22;60945;48.516;-2.768;2023-05-29T06:22:20;14.30;78.40
72814;DHT22;60945;48.516;-2.768;2023-05-29T06:24:45;14.40;77.80
72814;DHT22;60945;48.516;-2.768;2023-05-29T06:27:11;14.50;77.60
72814;DHT22;60945;48.516;-2.768;2023-05-29T06:29:37;14.50;77.60
72814;DHT22;60945;48.516;-2.768;2023-05-29T06:32:02;14.30;78.00
72814;DHT22;60945;48.516;-2.768;2023-05-29T06:34:28;14.50;78.00
72814;DHT22;60945;48.516;-2.768;2023-05-29T06:36:54;14.50;78.00
72814;DHT22;60945;48.516;-2.768;2023-05-29T06:39:19;14.60;77.10
72814;DHT22;60945;48.516;-2.768;2023-05-29T06:41:46;14.60;77.20
72814;DHT22;60945;48.516;-2.768;2023-05-29T06:44:11;14.70;76.80
72814;DHT22;60945;48.516;-2.768;2023-05-29T06:46:37;14.70;77.10
72814;DHT22;60945;48.516;-2.768;2023-05-29T06:49:03;14.90;76.40
72814;DHT22;60945;48.516;-2.768;2023-05-29T06:51:29;14.70;76.70
72814;DHT22;60945;48.516;-2.768;2023-05-29T06:53:57;14.60;77.20
72814;DHT22;60945;48.516;-2.768;2023-05-29T06:56:23;14.50;77.20
72814;DHT22;60945;48.516;-2.768;2023-05-29T06:58:48;14.40;77.10
72814;DHT22;60945;48.516;-2.768;2023-05-29T07:01:14;14.30;77.80
72814;DHT22;60945;48.516;-2.768;2023-05-29T07:03:42;14.40;78.10
72814;DHT22;60945;48.516;-2.768;2023-05-29T07:06:08;14.40;77.80
72814;DHT22;60945;48.516;-2.768;2023-05-29T07:08:33;14.50;77.50
72814;DHT22;60945;48.516;-2.768;2023-05-29T07:10:59;14.30;77.90
72814;DHT22;60945;48.516;-2.768;2023-05-29T07:13:26;14.40;78.10
72814;DHT22;60945;48.516;-2.768;2023-05-29T07:15:52;14.40;77.50
72814;DHT22;60945;48.516;-2.768;2023-05-29T07:18:18;14.50;77.30
72814;DHT22;60945;48.516;-2.768;2023-05-29T07:20:43;14.60;76.90
72814;DHT22;60945;48.516;-2.768;2023-05-29T07:23:11;14.70;76.70
72814;DHT22;60945;48.516;-2.768;2023-05-29T07:25:37;14.70;77.00
72814;DHT22;60945;48.516;-2.768;2023-05-29T07:28:02;14.60;77.00
72814;DHT22;60945;48.516;-2.768;2023-05-29T07:30:28;14.50;77.40
72814;DHT22;60945;48.516;-2.768;2023-05-29T07:32:54;14.70;77.50
72814;DHT22;60945;48.516;-2.768;2023-05-29T07:35:22;14.60;77.60
72814;DHT22;60945;48.516;-2.768;2023-05-29T07:37:48;14.40;78.20
72814;DHT22;60945;48.516;-2.768;2023-05-29T07:40:15;14.40;78.20
72814;DHT22;60945;48.516;-2.768;2023-05-29T07:42:40;14.40;78.00
72814;DHT22;60945;48.516;-2.768;2023-05-29T07:45:07;14.50;77.40
72814;DHT22;60945;48.516;-2.768;2023-05-29T07:47:35;14.60;77.10
72814;DHT22;60945;48.516;-2.768;2023-05-29T07:50:01;14.80;76.40
72814;DHT22;60945;48.516;-2.768;2023-05-29T07:52:26;14.80;76.10
72814;DHT22;60945;48.516;-2.768;2023-05-29T07:54:52;14.70;76.80
72814;DHT22;60945;48.516;-2.768;2023-05-29T07:57:18;14.70;76.70
72814;DHT22;60945;48.516;-2.768;2023-05-29T07:59:44;14.70;77.20
72814;DHT22;60945;48.516;-2.768;2023-05-29T08:02:09;14.80;77.00
72814;DHT22;60945;48.516;-2.768;2023-05-29T08:04:35;14.90;76.30
72814;DHT22;60945;48.516;-2.768;2023-05-29T08:07:02;15.00;75.60
72814;DHT22;60945;48.516;-2.768;2023-05-29T08:09:29;15.00;76.10
72814;DHT22;60945;48.516;-2.768;2023-05-29T08:11:55;14.90;76.20
72814;DHT22;60945;48.516;-2.768;2023-05-29T08:14:20;14.90;76.10
72814;DHT22;60945;48.516;-2.768;2023-05-29T08:16:46;14.90;75.90
72814;DHT22;60945;48.516;-2.768;2023-05-29T08:19:12;14.90;76.00
72814;DHT22;60945;48.516;-2.768;2023-05-29T08:21:37;14.70;76.10
72814;DHT22;60945;48.516;-2.768;2023-05-29T08:24:03;14.70;76.60
72814;DHT22;60945;48.516;-2.768;2023-05-29T08:26:32;14.80;76.50
72814;DHT22;60945;48.516;-2.768;2023-05-29T08:28:57;14.80;76.50
72814;DHT22;60945;48.516;-2.768;2023-05-29T08:31:23;14.90;76.00
72814;DHT22;60945;48.516;-2.768;2023-05-29T08:33:52;15.10;75.00
72814;DHT22;60945;48.516;-2.768;2023-05-29T08:36:18;14.90;75.40
72814;DHT22;60945;48.516;-2.768;2023-05-29T08:38:50;14.90;75.40
72814;DHT22;60945;48.516;-2.768;2023-05-29T08:41:30;15.10;74.90
72814;DHT22;60945;48.516;-2.768;2023-05-29T08:44:03;15.20;74.60
72814;DHT22;60945;48.516;-2.768;2023-05-29T08:46:29;15.10;74.60
72814;DHT22;60945;48.516;-2.768;2023-05-29T08:48:58;14.80;75.30
72814;DHT22;60945;48.516;-2.768;2023-05-29T08:51:27;14.90;75.40
72814;DHT22;60945;48.516;-2.768;2023-05-29T08:53:57;15.10;74.80
72814;DHT22;60945;48.516;-2.768;2023-05-29T08:56:23;15.10;75.10
72814;DHT22;60945;48.516;-2.768;2023-05-29T08:58:49;15.40;74.00
72814;DHT22;60945;48.516;-2.768;2023-05-29T09:01:17;15.40;72.80
72814;DHT22;60945;48.516;-2.768;2023-05-29T09:03:42;15.40;73.10
72814;DHT22;60945;48.516;-2.768;2023-05-29T09:06:08;15.50;72.70
72814;DHT22;60945;48.516;-2.768;2023-05-29T09:08:35;15.70;72.10
72814;DHT22;60945;48.516;-2.768;2023-05-29T09:11:01;15.90;71.30
72814;DHT22;60945;48.516;-2.768;2023-05-29T09:13:26;16.00;71.00
72814;DHT22;60945;48.516;-2.768;2023-05-29T09:16:00;16.10;70.70
72814;DHT22;60945;48.516;-2.768;2023-05-29T09:18:31;16.00;71.40
72814;DHT22;60945;48.516;-2.768;2023-05-29T09:20:58;16.00;71.10
72814;DHT22;60945;48.516;-2.768;2023-05-29T09:23:25;15.90;71.40
72814;DHT22;60945;48.516;-2.768;2023-05-29T09:25:52;16.00;70.80
72814;DHT22;60945;48.516;-2.768;2023-05-29T09:28:21;16.00;70.30
72814;DHT22;60945;48.516;-2.768;2023-05-29T09:30:49;15.90;70.10
72814;DHT22;60945;48.516;-2.768;2023-05-29T09:33:15;15.80;70.60
72814;DHT22;60945;48.516;-2.768;2023-05-29T09:35:46;16.00;70.10
72814;DHT22;60945;48.516;-2.768;2023-05-29T09:38:14;15.80;70.30
72814;DHT22;60945;48.516;-2.768;2023-05-29T09:40:41;15.90;70.60
72814;DHT22;60945;48.516;-2.768;2023-05-29T09:43:12;16.10;69.80
72814;DHT22;60945;48.516;-2.768;2023-05-29T09:45:44;16.10;69.60
72814;DHT22;60945;48.516;-2.768;2023-05-29T09:48:23;15.90;70.10
72814;DHT22;60945;48.516;-2.768;2023-05-29T09:50:49;15.80;70.90
72814;DHT22;60945;48.516;-2.768;2023-05-29T09:53:19;15.90;70.80
72814;DHT22;60945;48.516;-2.768;2023-05-29T09:55:49;16.30;69.40
72814;DHT22;60945;48.516;-2.768;2023-05-29T09:58:17;16.50;67.90
72814;DHT22;60945;48.516;-2.768;2023-05-29T10:00:43;16.10;68.60
72814;DHT22;60945;48.516;-2.768;2023-05-29T10:03:10;16.00;69.60
72814;DHT22;60945;48.516;-2.768;2023-05-29T10:05:39;15.80;70.70
72814;DHT22;60945;48.516;-2.768;2023-05-29T10:08:11;16.10;70.30
72814;DHT22;60945;48.516;-2.768;2023-05-29T10:10:43;16.20;69.70
72814;DHT22;60945;48.516;-2.768;2023-05-29T10:13:14;16.70;68.10
72814;DHT22;60945;48.516;-2.768;2023-05-29T10:15:45;16.70;67.30
72814;DHT22;60945;48.516;-2.768;2023-05-29T10:18:26;16.70;67.10
72814;DHT22;60945;48.516;-2.768;2023-05-29T10:20:53;16.60;67.80
72814;DHT22;60945;48.516;-2.768;2023-05-29T10:23:22;16.60;68.00
72814;DHT22;60945;48.516;-2.768;2023-05-29T10:25:52;16.80;67.50
72814;DHT22;60945;48.516;-2.768;2023-05-29T10:28:22;17.10;66.70
72814;DHT22;60945;48.516;-2.768;2023-05-29T10:33:58;16.60;68.30
72814;DHT22;60945;48.516;-2.768;2023-05-29T10:36:30;17.00;66.60
72814;DHT22;60945;48.516;-2.768;2023-05-29T10:38:57;17.90;62.90
72814;DHT22;60945;48.516;-2.768;2023-05-29T10:43:59;17.10;65.70
72814;DHT22;60945;48.516;-2.768;2023-05-29T10:51:42;17.00;66.80
72814;DHT22;60945;48.516;-2.768;2023-05-29T10:54:09;16.90;66.90
72814;DHT22;60945;48.516;-2.768;2023-05-29T10:56:35;17.00;66.70
72814;DHT22;60945;48.516;-2.768;2023-05-29T10:59:01;16.60;67.50
72814;DHT22;60945;48.516;-2.768;2023-05-29T11:01:29;16.20;68.90
72814;DHT22;60945;48.516;-2.768;2023-05-29T11:06:43;16.30;68.40
72814;DHT22;60945;48.516;-2.768;2023-05-29T11:12:15;16.20;69.40
72814;DHT22;60945;48.516;-2.768;2023-05-29T11:15:11;16.30;70.10
72814;DHT22;60945;48.516;-2.768;2023-05-29T11:20:35;16.60;67.90
72814;DHT22;60945;48.516;-2.768;2023-05-29T11:23:05;16.70;67.50
72814;DHT22;60945;48.516;-2.768;2023-05-29T11:25:35;17.40;65.60
72814;DHT22;60945;48.516;-2.768;2023-05-29T11:28:03;17.10;65.90
72814;DHT22;60945;48.516;-2.768;2023-05-29T11:30:30;16.90;67.00
72814;DHT22;60945;48.516;-2.768;2023-05-29T11:32:59;17.10;65.70
72814;DHT22;60945;48.516;-2.768;2023-05-29T11:35:30;17.40;65.30
72814;DHT22;60945;48.516;-2.768;2023-05-29T11:37:57;17.90;63.50
72814;DHT22;60945;48.516;-2.768;2023-05-29T11:40:23;17.40;65.00
72814;DHT22;60945;48.516;-2.768;2023-05-29T11:42:48;17.70;65.00
72814;DHT22;60945;48.516;-2.768;2023-05-29T11:45:21;17.60;64.60
72814;DHT22;60945;48.516;-2.768;2023-05-29T11:50:21;17.80;64.00
72814;DHT22;60945;48.516;-2.768;2023-05-29T11:52:47;18.00;63.20
72814;DHT22;60945;48.516;-2.768;2023-05-29T11:55:13;17.50;64.00
72814;DHT22;60945;48.516;-2.768;2023-05-29T11:57:39;17.40;64.10
72814;DHT22;60945;48.516;-2.768;2023-05-29T12:00:06;17.70;63.60
72814;DHT22;60945;48.516;-2.768;2023-05-29T12:02:36;19.10;59.30
72814;DHT22;60945;48.516;-2.768;2023-05-29T12:05:06;19.60;58.10
72814;DHT22;60945;48.516;-2.768;2023-05-29T12:07:35;18.90;59.80
72814;DHT22;60945;48.516;-2.768;2023-05-29T12:10:15;19.00;60.00
72814;DHT22;60945;48.516;-2.768;2023-05-29T12:12:41;18.30;61.90
72814;DHT22;60945;48.516;-2.768;2023-05-29T12:15:08;18.00;63.10
72814;DHT22;60945;48.516;-2.768;2023-05-29T12:17:37;17.90;63.10
72814;DHT22;60945;48.516;-2.768;2023-05-29T12:20:04;18.10;62.50
72814;DHT22;60945;48.516;-2.768;2023-05-29T12:22:34;18.00;62.70
72814;DHT22;60945;48.516;-2.768;2023-05-29T12:25:13;18.40;61.60
72814;DHT22;60945;48.516;-2.768;2023-05-29T12:27:44;18.10;62.60
72814;DHT22;60945;48.516;-2.768;2023-05-29T12:32:46;17.90;63.10
72814;DHT22;60945;48.516;-2.768;2023-05-29T12:40:28;18.50;61.20
72814;DHT22;60945;48.516;-2.768;2023-05-29T12:45:25;20.40;55.80
72814;DHT22;60945;48.516;-2.768;2023-05-29T12:47:56;20.00;56.80
72814;DHT22;60945;48.516;-2.768;2023-05-29T12:50:26;19.90;57.60
72814;DHT22;60945;48.516;-2.768;2023-05-29T12:52:58;19.40;57.70
72814;DHT22;60945;48.516;-2.768;2023-05-29T12:55:27;19.20;58.80
72814;DHT22;60945;48.516;-2.768;2023-05-29T12:57:54;19.00;59.20
72814;DHT22;60945;48.516;-2.768;2023-05-29T13:00:21;18.80;60.50
72814;DHT22;60945;48.516;-2.768;2023-05-29T13:02:48;18.90;60.40
72814;DHT22;60945;48.516;-2.768;2023-05-29T13:05:14;22.20;53.10
72814;DHT22;60945;48.516;-2.768;2023-05-29T13:07:41;24.50;44.90
72814;DHT22;60945;48.516;-2.768;2023-05-29T13:10:07;22.70;48.80
72814;DHT22;60945;48.516;-2.768;2023-05-29T13:12:34;20.80;53.20
72814;DHT22;60945;48.516;-2.768;2023-05-29T13:15:00;19.90;55.80
72814;DHT22;60945;48.516;-2.768;2023-05-29T13:17:26;18.90;58.60
72814;DHT22;60945;48.516;-2.768;2023-05-29T13:19:51;19.20;58.70
72814;DHT22;60945;48.516;-2.768;2023-05-29T13:22:17;19.10;58.50
72814;DHT22;60945;48.516;-2.768;2023-05-29T13:24:43;19.60;57.70
72814;DHT22;60945;48.516;-2.768;2023-05-29T13:27:08;20.20;57.70
72814;DHT22;60945;48.516;-2.768;2023-05-29T13:29:34;20.70;55.30
72814;DHT22;60945;48.516;-2.768;2023-05-29T13:32:00;20.30;55.20
72814;DHT22;60945;48.516;-2.768;2023-05-29T13:34:26;19.40;57.20
72814;DHT22;60945;48.516;-2.768;2023-05-29T13:36:57;20.00;56.00
72814;DHT22;60945;48.516;-2.768;2023-05-29T13:39:23;20.20;54.90
72814;DHT22;60945;48.516;-2.768;2023-05-29T13:41:50;20.30;54.80
72814;DHT22;60945;48.516;-2.768;2023-05-29T13:44:16;18.80;58.70
72814;DHT22;60945;48.516;-2.768;2023-05-29T13:46:41;18.60;60.60
72814;DHT22;60945;48.516;-2.768;2023-05-29T13:49:07;19.30;58.80
72814;DHT22;60945;48.516;-2.768;2023-05-29T13:51:33;18.80;59.70
72814;DHT22;60945;48.516;-2.768;2023-05-29T13:53:59;19.50;58.60
72814;DHT22;60945;48.516;-2.768;2023-05-29T13:56:27;18.90;58.40
72814;DHT22;60945;48.516;-2.768;2023-05-29T13:58:53;18.40;61.20
72814;DHT22;60945;48.516;-2.768;2023-05-29T14:01:19;18.40;61.30
72814;DHT22;60945;48.516;-2.768;2023-05-29T14:03:45;18.90;59.20
72814;DHT22;60945;48.516;-2.768;2023-05-29T14:06:11;21.40;54.20
72814;DHT22;60945;48.516;-2.768;2023-05-29T14:08:36;21.20;52.20
72814;DHT22;60945;48.516;-2.768;2023-05-29T14:11:02;22.80;49.00
72814;DHT22;60945;48.516;-2.768;2023-05-29T14:13:28;23.10;47.30
72814;DHT22;60945;48.516;-2.768;2023-05-29T14:15:56;20.60;53.40
72814;DHT22;60945;48.516;-2.768;2023-05-29T14:18:23;19.80;56.90
72814;DHT22;60945;48.516;-2.768;2023-05-29T14:20:49;20.30;54.80
72814;DHT22;60945;48.516;-2.768;2023-05-29T14:23:17;19.20;58.00
72814;DHT22;60945;48.516;-2.768;2023-05-29T14:25:42;18.70;60.10
72814;DHT22;60945;48.516;-2.768;2023-05-29T14:28:08;18.20;61.30
72814;DHT22;60945;48.516;-2.768;2023-05-29T14:30:35;18.50;60.60
72814;DHT22;60945;48.516;-2.768;2023-05-29T14:33:00;18.10;61.10
72814;DHT22;60945;48.516;-2.768;2023-05-29T14:35:26;17.50;63.30
72814;DHT22;60945;48.516;-2.768;2023-05-29T14:37:52;17.60;62.50
72814;DHT22;60945;48.516;-2.768;2023-05-29T14:40:20;17.70;63.10
72814;DHT22;60945;48.516;-2.768;2023-05-29T14:42:45;17.60;62.90
72814;DHT22;60945;48.516;-2.768;2023-05-29T14:45:11;17.50;63.90
72814;DHT22;60945;48.516;-2.768;2023-05-29T14:47:37;17.60;63.50
72814;DHT22;60945;48.516;-2.768;2023-05-29T14:50:03;17.60;62.90
72814;DHT22;60945;48.516;-2.768;2023-05-29T14:52:28;17.40;63.90
72814;DHT22;60945;48.516;-2.768;2023-05-29T14:54:54;17.30;64.30
72814;DHT22;60945;48.516;-2.768;2023-05-29T14:57:23;17.40;64.50
72814;DHT22;60945;48.516;-2.768;2023-05-29T14:59:48;17.70;63.80
72814;DHT22;60945;48.516;-2.768;2023-05-29T15:02:15;17.40;64.60
72814;DHT22;60945;48.516;-2.768;2023-05-29T15:04:41;17.60;63.50
72814;DHT22;60945;48.516;-2.768;2023-05-29T15:07:07;17.50;64.10
72814;DHT22;60945;48.516;-2.768;2023-05-29T15:09:33;17.80;63.30
72814;DHT22;60945;48.516;-2.768;2023-05-29T15:11:58;18.30;61.70
72814;DHT22;60945;48.516;-2.768;2023-05-29T15:14:24;18.20;61.40
72814;DHT22;60945;48.516;-2.768;2023-05-29T15:16:50;17.90;61.70
72814;DHT22;60945;48.516;-2.768;2023-05-29T15:19:15;18.00;61.70
72814;DHT22;60945;48.516;-2.768;2023-05-29T15:21:41;18.70;58.40
72814;DHT22;60945;48.516;-2.768;2023-05-29T15:24:07;18.90;59.10
72814;DHT22;60945;48.516;-2.768;2023-05-29T15:26:33;20.00;55.80
72814;DHT22;60945;48.516;-2.768;2023-05-29T15:29:00;20.20;55.00
72814;DHT22;60945;48.516;-2.768;2023-05-29T15:31:25;19.30;57.40
72814;DHT22;60945;48.516;-2.768;2023-05-29T15:33:51;20.60;55.20
72814;DHT22;60945;48.516;-2.768;2023-05-29T15:36:17;21.10;51.20
72814;DHT22;60945;48.516;-2.768;2023-05-29T15:38:44;20.50;53.00
72814;DHT22;60945;48.516;-2.768;2023-05-29T15:41:10;20.60;53.70
72814;DHT22;60945;48.516;-2.768;2023-05-29T15:43:35;21.00;53.00
72814;DHT22;60945;48.516;-2.768;2023-05-29T15:46:01;20.20;54.40
72814;DHT22;60945;48.516;-2.768;2023-05-29T15:48:27;19.50;56.70
72814;DHT22;60945;48.516;-2.768;2023-05-29T15:50:52;19.30;57.70